Time;durP1;ratioP1;P1;durP2;ratioP2;P2;SDS_P1;SDS_P2;PMS_P1;PMS_P2;Temp;Humidity;BMP_temperature;BMP_pressure;BME280_temperature;BME280_humidity;BME280_pressure;Samples;Min_cycle;Max_cycle;Signal;HPM_P1;HPM_P2
2024/01/22 00:02:12;;;;;;;6.25;2.42;;;8.40;99.90;;;;;;5037368;28;20025;-74
2024/01/22 00:04:38;;;;;;;6.72;2.03;;;8.40;99.90;;;;;;5063555;28;20021;-74
2024/01/22 00:07:03;;;;;;;5.45;2.17;;;8.40;99.90;;;;;;5035123;28;20152;-75
2024/01/22 00:09:29;;;;;;;4.75;1.98;;;8.40;99.90;;;;;;5039376;28;20063;-74
2024/01/22 00:11:54;;;;;;;4.07;1.92;;;8.50;99.90;;;;;;5038127;28;20044;-74
2024/01/22 00:14:20;;;;;;;5.60;2.08;;;8.50;99.90;;;;;;5030344;28;20109;-75
2024/01/22 00:16:46;;;;;;;4.75;2.00;;;8.50;99.90;;;;;;5042767;28;20055;-74
2024/01/22 00:19:11;;;;;;;6.93;2.47;;;8.50;99.90;;;;;;5049173;28;20103;-75
2024/01/22 00:21:43;;;;;;;4.97;2.28;;;8.50;99.90;;;;;;5049042;28;20109;-75
2024/01/22 00:24:09;;;;;;;5.07;2.10;;;8.60;99.90;;;;;;5033024;28;20048;-75
2024/01/22 00:26:35;;;;;;;6.47;2.22;;;8.60;99.90;;;;;;5041220;28;20060;-75
2024/01/22 00:29:00;;;;;;;6.78;2.05;;;8.60;99.90;;;;;;5033774;28;20092;-74
2024/01/22 00:31:26;;;;;;;4.95;2.03;;;8.70;99.90;;;;;;5046882;28;20020;-75
2024/01/22 00:33:52;;;;;;;7.10;1.70;;;8.70;99.90;;;;;;5037699;28;20028;-74
2024/01/22 00:36:17;;;;;;;5.18;2.10;;;8.70;99.90;;;;;;5047351;28;20075;-74
2024/01/22 00:38:43;;;;;;;4.75;1.98;;;8.70;99.90;;;;;;5048670;28;20033;-74
2024/01/22 00:41:09;;;;;;;7.38;2.30;;;8.80;99.90;;;;;;5048336;28;20396;-74
2024/01/22 00:43:36;;;;;;;6.75;2.40;;;8.80;99.90;;;;;;5041651;28;20025;-74
2024/01/22 00:46:01;;;;;;;5.55;2.20;;;8.90;99.90;;;;;;5030919;28;20776;-74
2024/01/22 00:48:28;;;;;;;5.45;2.08;;;8.90;99.90;;;;;;5030851;28;20043;-74
2024/01/22 00:50:53;;;;;;;3.63;1.70;;;8.90;99.90;;;;;;5050557;28;20414;-74
2024/01/22 00:53:19;;;;;;;7.40;1.80;;;8.90;99.90;;;;;;5045982;28;20059;-75
2024/01/22 00:55:45;;;;;;;5.32;1.88;;;8.90;99.90;;;;;;5035696;28;20044;-75
2024/01/22 00:58:10;;;;;;;6.47;1.88;;;9.00;99.90;;;;;;5030640;28;20034;-74
2024/01/22 01:00:36;;;;;;;4.20;1.90;;;9.00;99.90;;;;;;5034181;28;20045;-74
2024/01/22 01:03:01;;;;;;;6.10;2.05;;;9.00;99.90;;;;;;5034649;28;20344;-75
2024/01/22 01:05:27;;;;;;;3.88;1.48;;;9.10;99.90;;;;;;5031508;28;20056;-74
2024/01/22 01:07:53;;;;;;;3.50;1.30;;;9.10;99.90;;;;;;5033765;28;20051;-74
2024/01/22 01:10:19;;;;;;;3.72;1.48;;;9.10;99.90;;;;;;5031658;28;20081;-75
2024/01/22 01:12:44;;;;;;;4.03;1.67;;;9.10;99.90;;;;;;5045151;28;20503;-74
2024/01/22 01:15:10;;;;;;;3.03;1.13;;;9.10;99.90;;;;;;5043286;28;20052;-75
2024/01/22 01:17:37;;;;;;;5.28;1.35;;;9.20;99.90;;;;;;5031998;28;20056;-75
2024/01/22 01:20:03;;;;;;;7.05;1.65;;;9.20;99.90;;;;;;5047481;28;20032;-74
2024/01/22 01:22:30;;;;;;;7.05;1.35;;;9.20;99.90;;;;;;5032968;28;20480;-74
2024/01/22 01:24:56;;;;;;;6.18;1.40;;;9.30;99.90;;;;;;5034884;28;20021;-75
2024/01/22 01:27:22;;;;;;;4.90;1.15;;;9.40;99.90;;;;;;5044970;28;20079;-74
2024/01/22 01:29:47;;;;;;;5.07;1.17;;;9.40;99.90;;;;;;5028744;28;20432;-74
2024/01/22 01:32:13;;;;;;;4.20;1.00;;;9.50;99.90;;;;;;5048515;28;20021;-74
2024/01/22 01:34:39;;;;;;;4.97;1.60;;;9.50;99.90;;;;;;5034753;28;20075;-74
2024/01/22 01:37:04;;;;;;;4.13;1.27;;;9.50;99.90;;;;;;5048477;28;20146;-74
2024/01/22 01:39:30;;;;;;;3.90;1.02;;;9.50;99.90;;;;;;5033576;28;20043;-75
2024/01/22 01:41:56;;;;;;;3.75;0.90;;;9.60;99.90;;;;;;5044307;28;20035;-75
2024/01/22 01:44:38;;;;;;;2.40;0.85;;;9.60;99.90;;;;;;5039478;28;20453;-74
2024/01/22 01:47:04;;;;;;;;;;;9.60;99.90;;;;;;5044854;28;20958;-75
2024/01/22 01:49:30;;;;;;;5.53;1.10;;;9.60;99.90;;;;;;5038516;28;19915;-75
2024/01/22 01:51:56;;;;;;;7.07;1.10;;;9.70;99.90;;;;;;5047183;28;20026;-75
2024/01/22 01:54:23;;;;;;;3.20;1.20;;;9.70;99.90;;;;;;5044065;28;20468;-75
2024/01/22 01:56:49;;;;;;;2.45;0.80;;;9.70;99.90;;;;;;5052431;28;20037;-75
2024/01/22 01:59:16;;;;;;;3.35;1.00;;;9.70;99.90;;;;;;5038037;28;20029;-74
2024/01/22 02:01:41;;;;;;;2.60;0.90;;;9.70;99.90;;;;;;5048576;28;20048;-74
2024/01/22 02:04:07;;;;;;;2.65;0.95;;;9.80;99.90;;;;;;5050709;28;20021;-75
2024/01/22 02:06:33;;;;;;;3.03;0.90;;;9.80;99.90;;;;;;5051130;28;20025;-74
2024/01/22 02:08:58;;;;;;;4.20;1.00;;;9.80;99.90;;;;;;5049246;28;20046;-75
2024/01/22 02:11:24;;;;;;;2.25;1.05;;;9.80;99.90;;;;;;5036221;28;20365;-74
2024/01/22 02:13:49;;;;;;;3.22;0.95;;;9.80;99.90;;;;;;5033469;28;20033;-74
2024/01/22 02:16:15;;;;;;;2.40;0.80;;;9.80;99.90;;;;;;5040470;28;20086;-74
2024/01/22 02:18:41;;;;;;;2.95;0.80;;;9.80;99.90;;;;;;5050850;28;20063;-75
2024/01/22 02:21:08;;;;;;;2.47;0.70;;;9.90;99.90;;;;;;5039779;28;20036;-74
2024/01/22 02:23:33;;;;;;;2.50;0.70;;;9.90;99.90;;;;;;5033064;28;20028;-74
2024/01/22 02:25:59;;;;;;;2.85;0.90;;;9.90;99.90;;;;;;5033676;28;20118;-75
2024/01/22 02:28:27;;;;;;;4.32;0.80;;;9.90;99.90;;;;;;5034862;28;20485;-74
2024/01/22 02:30:53;;;;;;;2.80;0.70;;;9.90;99.90;;;;;;5033511;28;20036;-74
2024/01/22 02:33:19;;;;;;;2.08;0.70;;;9.90;99.90;;;;;;5036992;28;20021;-74
2024/01/22 02:35:45;;;;;;;2.20;0.70;;;9.90;99.90;;;;;;5052033;28;20036;-75
2024/01/22 02:38:10;;;;;;;2.80;0.70;;;10.00;99.90;;;;;;5038865;28;20448;-75
2024/01/22 02:40:36;;;;;;;2.50;0.60;;;10.00;99.90;;;;;;5044795;28;20082;-75
2024/01/22 02:43:02;;;;;;;4.03;0.60;;;10.00;99.90;;;;;;5035683;28;20107;-74
2024/01/22 02:45:27;;;;;;;2.78;0.90;;;10.10;99.90;;;;;;5045350;28;20045;-75
2024/01/22 02:47:53;;;;;;;2.33;0.60;;;10.10;99.90;;;;;;5034743;28;20389;-74
2024/01/22 02:50:18;;;;;;;3.47;0.70;;;10.10;99.90;;;;;;5038997;28;20030;-75
2024/01/22 02:52:44;;;;;;;4.53;1.30;;;10.00;99.90;;;;;;5040222;28;20035;-75
2024/01/22 02:55:10;;;;;;;2.65;0.70;;;10.00;99.90;;;;;;5039024;28;20397;-74
2024/01/22 02:57:35;;;;;;;2.92;0.75;;;9.90;99.90;;;;;;5044400;28;20053;-75
2024/01/22 03:00:01;;;;;;;3.45;0.63;;;10.00;99.90;;;;;;5030358;28;20067;-74
2024/01/22 03:02:27;;;;;;;2.20;0.60;;;9.90;99.90;;;;;;5032137;28;20041;-75
2024/01/22 03:04:53;;;;;;;4.53;0.85;;;9.90;99.90;;;;;;5034555;28;20053;-75
2024/01/22 03:07:19;;;;;;;2.95;0.55;;;9.90;99.90;;;;;;5035532;28;20061;-74
2024/01/22 03:09:44;;;;;;;3.42;0.73;;;9.90;99.90;;;;;;5034537;28;20171;-75
2024/01/22 03:12:10;;;;;;;3.75;0.88;;;9.80;99.90;;;;;;5036455;28;20396;-75
2024/01/22 03:14:36;;;;;;;3.63;1.00;;;9.90;99.90;;;;;;5042577;28;20021;-75
2024/01/22 03:17:02;;;;;;;3.45;0.75;;;9.80;99.90;;;;;;5030803;28;20034;-75
2024/01/22 03:19:28;;;;;;;1.75;0.77;;;9.80;99.90;;;;;;5031691;28;20483;-76
2024/01/22 03:21:53;;;;;;;2.72;0.65;;;9.90;99.90;;;;;;5044078;28;20438;-75
2024/01/22 03:24:20;;;;;;;2.40;0.70;;;9.90;99.90;;;;;;5033827;28;20021;-74
2024/01/22 03:26:46;;;;;;;1.63;0.60;;;9.80;99.90;;;;;;5046074;28;20059;-75
2024/01/22 03:29:11;;;;;;;2.17;0.70;;;9.90;99.90;;;;;;5039724;28;20419;-75
2024/01/22 03:31:37;;;;;;;2.38;0.60;;;9.90;99.90;;;;;;5050648;28;20029;-74
2024/01/22 03:34:03;;;;;;;2.35;0.65;;;9.90;99.90;;;;;;5049087;28;20032;-75
2024/01/22 03:36:29;;;;;;;1.50;0.57;;;9.90;99.90;;;;;;5042287;28;20036;-75
2024/01/22 03:38:55;;;;;;;2.22;0.80;;;9.90;99.90;;;;;;5034534;28;20405;-75
2024/01/22 03:41:20;;;;;;;2.42;0.68;;;9.90;99.90;;;;;;5030232;28;20037;-75
2024/01/22 03:43:46;;;;;;;2.58;0.60;;;9.90;99.90;;;;;;5042862;28;20579;-75
2024/01/22 03:46:13;;;;;;;1.83;0.70;;;9.90;99.90;;;;;;5030587;28;20037;-75
2024/01/22 03:48:39;;;;;;;2.28;0.50;;;9.90;99.90;;;;;;5039959;28;20020;-75
2024/01/22 03:51:05;;;;;;;4.72;0.82;;;9.90;99.90;;;;;;5040292;28;20084;-75
2024/01/22 03:53:31;;;;;;;4.47;0.80;;;9.90;99.90;;;;;;5032542;28;20033;-74
2024/01/22 03:55:57;;;;;;;1.92;0.68;;;9.80;99.90;;;;;;5043497;28;20403;-75
2024/01/22 03:58:22;;;;;;;5.82;0.50;;;9.80;99.90;;;;;;5034154;28;20104;-75
2024/01/22 04:00:48;;;;;;;2.05;0.52;;;9.80;99.90;;;;;;5040394;28;20031;-74
2024/01/22 04:03:13;;;;;;;2.10;0.50;;;9.80;99.90;;;;;;5044470;28;20032;-75
2024/01/22 04:05:39;;;;;;;3.08;0.50;;;9.80;99.90;;;;;;5035154;28;20469;-75
2024/01/22 04:08:06;;;;;;;2.65;0.50;;;9.80;99.90;;;;;;5046843;28;20068;-75
2024/01/22 04:10:31;;;;;;;1.63;0.50;;;9.80;99.90;;;;;;5049590;28;20548;-75
2024/01/22 04:12:57;;;;;;;3.08;0.70;;;9.80;99.90;;;;;;5047289;28;20108;-76
2024/01/22 04:15:25;;;;;;;3.97;0.70;;;9.80;99.90;;;;;;5050018;28;20036;-75
2024/01/22 04:17:51;;;;;;;2.00;0.50;;;9.90;99.90;;;;;;5047696;28;20508;-74
2024/01/22 04:20:17;;;;;;;1.95;0.57;;;9.90;99.90;;;;;;5033800;28;20065;-75
2024/01/22 04:22:42;;;;;;;2.35;0.60;;;9.90;99.90;;;;;;5043786;28;20029;-76
2024/01/22 04:25:08;;;;;;;2.70;0.57;;;10.00;99.90;;;;;;5039472;28;20068;-75
2024/01/22 04:27:34;;;;;;;3.05;0.60;;;10.00;99.90;;;;;;5046561;28;20021;-75
2024/01/22 04:30:00;;;;;;;1.95;0.75;;;10.10;99.90;;;;;;5035632;28;20075;-75
2024/01/22 04:32:25;;;;;;;2.97;0.50;;;10.10;99.90;;;;;;5036672;28;20496;-75
2024/01/22 04:34:52;;;;;;;4.05;0.50;;;10.20;99.90;;;;;;5038859;28;20026;-75
2024/01/22 04:37:17;;;;;;;3.10;0.70;;;10.20;99.90;;;;;;5045860;28;20021;-76
2024/01/22 04:39:43;;;;;;;0.85;0.30;;;10.30;99.90;;;;;;5046654;28;20032;-76
2024/01/22 04:42:12;;;;;;;1.52;0.50;;;10.30;99.90;;;;;;5038133;28;20025;-75
2024/01/22 04:44:38;;;;;;;1.33;0.50;;;10.30;99.90;;;;;;5045219;28;20033;-75
2024/01/22 04:47:03;;;;;;;2.78;0.43;;;10.40;99.90;;;;;;5045331;28;20112;-75
2024/01/22 04:49:29;;;;;;;2.60;0.40;;;10.40;99.90;;;;;;5039194;28;20021;-74
2024/01/22 04:51:55;;;;;;;1.88;0.40;;;10.40;99.90;;;;;;5041093;28;20028;-75
2024/01/22 04:54:21;;;;;;;1.00;0.30;;;10.50;99.90;;;;;;5036681;28;20030;-75
2024/01/22 04:56:47;;;;;;;3.17;0.70;;;10.50;99.90;;;;;;5036730;28;20090;-75
2024/01/22 04:59:13;;;;;;;1.27;0.47;;;10.50;99.90;;;;;;5042201;28;20036;-76
2024/01/22 05:01:40;;;;;;;0.90;0.30;;;10.50;99.90;;;;;;5038560;28;20090;-75
2024/01/22 05:04:06;;;;;;;3.47;0.47;;;10.50;99.90;;;;;;5047637;28;20029;-75
2024/01/22 05:06:32;;;;;;;2.20;0.38;;;10.50;99.90;;;;;;5042494;28;20033;-75
2024/01/22 05:08:57;;;;;;;2.70;0.40;;;10.50;99.90;;;;;;5043006;28;20029;-75
2024/01/22 05:11:23;;;;;;;2.10;0.60;;;10.50;99.90;;;;;;5032661;28;20032;-75
2024/01/22 05:13:53;;;;;;;3.33;0.50;;;10.60;99.90;;;;;;5043299;28;20497;-76
2024/01/22 05:16:21;;;;;;;1.05;0.40;;;10.60;99.90;;;;;;5030640;28;20033;-75
2024/01/22 05:18:48;;;;;;;1.92;0.30;;;10.60;99.90;;;;;;5029364;28;20469;-76
2024/01/22 05:21:14;;;;;;;5.40;1.58;;;10.70;99.90;;;;;;5032666;28;20056;-75
2024/01/22 05:23:41;;;;;;;2.35;0.30;;;10.80;99.90;;;;;;5042094;28;20029;-75
2024/01/22 05:26:07;;;;;;;2.58;0.40;;;10.80;99.90;;;;;;5042185;28;20032;-74
2024/01/22 05:28:33;;;;;;;1.52;0.30;;;10.80;99.90;;;;;;5045424;28;20032;-74
2024/01/22 05:31:00;;;;;;;1.63;0.50;;;10.90;99.90;;;;;;5035986;28;20029;-74
2024/01/22 05:33:26;;;;;;;0.95;0.30;;;10.90;99.90;;;;;;5035599;28;20488;-74
2024/01/22 05:35:51;;;;;;;0.70;0.30;;;11.00;99.90;;;;;;5033797;28;20403;-74
2024/01/22 05:38:17;;;;;;;1.67;0.20;;;11.00;99.90;;;;;;5035418;28;20028;-74
2024/01/22 05:40:43;;;;;;;2.92;0.47;;;11.10;99.90;;;;;;5046876;28;20040;-74
2024/01/22 05:43:08;;;;;;;2.65;0.30;;;11.10;99.90;;;;;;5038210;28;20079;-74
2024/01/22 05:45:34;;;;;;;1.10;0.20;;;11.10;99.90;;;;;;5052382;28;20063;-74
2024/01/22 05:47:59;;;;;;;2.33;0.30;;;11.20;99.90;;;;;;5050358;28;20049;-75
2024/01/22 05:50:25;;;;;;;2.00;0.20;;;11.20;99.90;;;;;;5054266;28;20396;-74
2024/01/22 05:52:51;;;;;;;1.83;0.20;;;11.20;99.90;;;;;;5044473;28;20033;-74
2024/01/22 05:55:16;;;;;;;3.53;0.32;;;11.30;99.90;;;;;;5032804;28;20045;-74
2024/01/22 05:57:42;;;;;;;1.45;0.30;;;11.30;99.90;;;;;;5036785;28;20022;-74
2024/01/22 06:00:13;;;;;;;2.47;0.20;;;11.40;99.90;;;;;;5050282;28;20024;-74
2024/01/22 06:02:42;;;;;;;1.55;0.20;;;11.50;99.90;;;;;;5037157;28;20394;-74
2024/01/22 06:05:11;;;;;;;2.33;0.65;;;11.50;99.90;;;;;;5042889;28;20036;-74
2024/01/22 06:07:37;;;;;;;1.70;0.20;;;11.60;99.90;;;;;;5046155;28;20025;-74
2024/01/22 06:10:05;;;;;;;1.55;0.20;;;11.60;99.90;;;;;;5038587;28;20040;-76
2024/01/22 06:12:30;;;;;;;1.60;0.20;;;11.70;99.90;;;;;;5036425;28;20392;-74
2024/01/22 06:14:57;;;;;;;1.45;0.13;;;11.70;99.90;;;;;;5039999;28;20112;-74
2024/01/22 06:17:23;;;;;;;0.60;0.10;;;11.70;99.90;;;;;;5035957;28;20037;-74
2024/01/22 06:19:49;;;;;;;1.60;0.17;;;11.80;99.90;;;;;;5043976;28;20385;-75
2024/01/22 06:22:15;;;;;;;1.75;0.20;;;11.80;99.90;;;;;;5049798;28;20033;-74
2024/01/22 06:24:40;;;;;;;3.83;0.20;;;11.80;99.90;;;;;;5049422;28;20053;-75
2024/01/22 06:27:06;;;;;;;1.67;0.10;;;11.90;99.90;;;;;;5033703;28;20374;-75
2024/01/22 06:29:35;;;;;;;0.90;0.10;;;11.90;99.90;;;;;;5032573;28;22066;-75
2024/01/22 06:32:01;;;;;;;1.40;0.20;;;11.90;99.90;;;;;;5032887;28;20061;-74
2024/01/22 06:34:26;;;;;;;1.27;0.15;;;11.90;99.90;;;;;;5041111;28;20075;-74
2024/01/22 06:36:52;;;;;;;0.73;0.20;;;12.00;99.90;;;;;;5032838;28;20041;-75
2024/01/22 06:39:18;;;;;;;1.23;0.20;;;12.00;99.90;;;;;;5036648;28;20034;-75
2024/01/22 06:41:43;;;;;;;0.70;0.20;;;11.90;99.90;;;;;;5050764;28;20108;-74
2024/01/22 06:44:09;;;;;;;0.70;0.13;;;11.90;99.90;;;;;;5051977;28;20677;-75
2024/01/22 06:46:35;;;;;;;2.40;0.20;;;11.90;99.90;;;;;;5040220;28;20076;-74
2024/01/22 06:49:00;;;;;;;2.85;0.32;;;11.90;99.90;;;;;;5034664;28;20025;-74
2024/01/22 06:51:26;;;;;;;0.82;0.10;;;11.80;99.90;;;;;;5042333;28;20106;-74
2024/01/22 06:53:51;;;;;;;1.52;0.10;;;11.80;99.90;;;;;;5046339;28;20445;-74
2024/01/22 06:56:17;;;;;;;3.00;0.28;;;11.80;99.90;;;;;;5032573;28;20071;-74
2024/01/22 06:58:43;;;;;;;1.67;0.10;;;11.90;99.90;;;;;;5049787;28;20033;-74
2024/01/22 07:01:08;;;;;;;3.17;0.20;;;11.90;99.90;;;;;;5044487;28;20021;-74
2024/01/22 07:03:35;;;;;;;2.75;0.50;;;11.80;99.90;;;;;;5035741;28;20096;-74
2024/01/22 07:06:01;;;;;;;3.92;0.28;;;11.90;99.90;;;;;;5046856;28;20029;-74
2024/01/22 07:08:26;;;;;;;1.70;0.20;;;11.90;99.90;;;;;;5046330;28;20040;-74
2024/01/22 07:10:52;;;;;;;4.50;0.30;;;11.90;99.90;;;;;;5035585;28;20032;-74
2024/01/22 07:13:17;;;;;;;2.85;0.20;;;11.90;99.90;;;;;;5040416;28;20382;-74
2024/01/22 07:15:43;;;;;;;1.77;0.20;;;12.00;99.90;;;;;;5036908;28;20068;-75
2024/01/22 07:18:09;;;;;;;2.45;0.25;;;12.00;99.90;;;;;;5037631;28;20021;-75
2024/01/22 07:20:34;;;;;;;3.40;0.30;;;12.00;99.90;;;;;;5035444;28;20068;-74
2024/01/22 07:23:00;;;;;;;4.07;0.60;;;12.00;99.90;;;;;;5033913;28;20029;-75
2024/01/22 07:25:27;;;;;;;3.17;0.30;;;12.00;99.90;;;;;;5032643;28;20883;-75
2024/01/22 07:27:52;;;;;;;4.38;0.40;;;12.00;99.90;;;;;;5031713;28;20398;-76
2024/01/22 07:30:18;;;;;;;4.15;0.40;;;12.00;99.90;;;;;;5037505;28;20033;-75
2024/01/22 07:32:44;;;;;;;4.22;0.40;;;12.00;99.90;;;;;;5029959;28;20088;-74
2024/01/22 07:35:13;;;;;;;4.70;0.20;;;12.00;99.90;;;;;;5039750;28;20603;-74
2024/01/22 07:37:42;;;;;;;2.45;0.30;;;11.90;99.90;;;;;;5037616;28;20068;-73
2024/01/22 07:40:11;;;;;;;1.50;0.20;;;11.90;99.90;;;;;;5035843;28;20032;-74
2024/01/22 07:42:38;;;;;;;6.18;0.50;;;11.90;99.90;;;;;;5036170;28;20477;-73
2024/01/22 07:45:05;;;;;;;4.57;0.30;;;11.90;99.90;;;;;;5030788;28;20049;-74
2024/01/22 07:47:35;;;;;;;5.10;0.40;;;11.90;99.90;;;;;;5029256;28;20025;-73
2024/01/22 07:50:05;;;;;;;6.38;0.55;;;11.90;99.90;;;;;;5035508;28;20033;-74
2024/01/22 07:52:34;;;;;;;6.20;0.40;;;11.90;99.90;;;;;;5030475;28;20013;-73
2024/01/22 07:55:00;;;;;;;5.65;0.40;;;11.80;99.90;;;;;;5032618;28;20472;-75
2024/01/22 07:57:26;;;;;;;7.03;0.60;;;11.80;99.90;;;;;;5028082;28;20053;-74
2024/01/22 07:59:51;;;;;;;6.22;0.52;;;11.80;99.90;;;;;;5030113;28;20060;-74
2024/01/22 08:02:17;;;;;;;7.68;1.05;;;11.80;99.90;;;;;;5031903;28;20040;-75
2024/01/22 08:04:43;;;;;;;7.88;0.60;;;11.70;99.90;;;;;;5037267;28;20086;-74
2024/01/22 08:07:09;;;;;;;5.80;0.40;;;11.70;99.90;;;;;;5030953;28;20117;-75
2024/01/22 08:09:35;;;;;;;2.75;0.40;;;11.70;99.90;;;;;;5044698;28;20025;-75
2024/01/22 08:12:03;;;;;;;5.20;0.73;;;11.60;99.90;;;;;;5035600;28;20029;-75
2024/01/22 08:14:33;;;;;;;7.47;1.00;;;11.60;99.90;;;;;;5037218;28;20018;-76
2024/01/22 08:16:59;;;;;;;6.20;0.65;;;11.50;99.90;;;;;;5030652;28;20116;-75
2024/01/22 08:19:26;;;;;;;8.80;0.77;;;11.50;99.90;;;;;;5034948;28;20183;-75
2024/01/22 08:21:52;;;;;;;9.23;0.55;;;11.50;99.90;;;;;;5038345;28;20033;-75
2024/01/22 08:24:18;;;;;;;11.82;1.20;;;11.50;99.90;;;;;;5032453;28;20116;-75
2024/01/22 08:26:43;;;;;;;8.88;0.98;;;11.40;99.90;;;;;;5035439;28;20241;-76
2024/01/22 08:29:09;;;;;;;10.00;1.00;;;11.50;99.90;;;;;;5038538;28;20526;-74
2024/01/22 08:31:35;;;;;;;10.18;1.77;;;11.40;99.90;;;;;;5033966;28;20039;-74
2024/01/22 08:34:02;;;;;;;9.27;0.68;;;11.40;99.90;;;;;;5042092;28;20036;-75
2024/01/22 08:36:28;;;;;;;8.23;0.80;;;11.30;99.90;;;;;;5029649;28;20033;-76
2024/01/22 08:38:54;;;;;;;5.95;0.60;;;11.30;99.90;;;;;;5032355;28;20071;-75
2024/01/22 08:41:21;;;;;;;6.63;0.65;;;11.30;99.90;;;;;;5029914;28;20506;-74
2024/01/22 08:43:47;;;;;;;6.40;0.55;;;11.30;99.90;;;;;;5041407;28;20910;-75
2024/01/22 08:46:12;;;;;;;9.80;0.90;;;11.30;99.90;;;;;;5037187;28;20036;-73
2024/01/22 08:48:38;;;;;;;11.35;0.80;;;11.30;99.90;;;;;;5044673;28;20022;-74
2024/01/22 08:51:04;;;;;;;7.28;0.57;;;11.30;99.90;;;;;;5037129;28;20068;-74
2024/01/22 08:53:29;;;;;;;5.45;0.70;;;11.30;99.90;;;;;;5031908;28;20037;-74
2024/01/22 08:55:55;;;;;;;7.47;0.80;;;11.30;99.90;;;;;;5033254;28;20037;-74
2024/01/22 08:58:21;;;;;;;7.05;0.90;;;11.40;99.90;;;;;;5033568;28;20017;-73
2024/01/22 09:00:46;;;;;;;6.30;1.60;;;11.40;99.90;;;;;;5036334;28;20033;-73
2024/01/22 09:03:12;;;;;;;10.10;0.93;;;11.40;99.90;;;;;;5044981;28;20412;-74
2024/01/22 09:05:38;;;;;;;8.95;0.82;;;11.50;99.90;;;;;;5033463;28;20032;-74
2024/01/22 09:08:04;;;;;;;6.15;0.80;;;11.50;99.90;;;;;;5042720;28;20024;-74
2024/01/22 09:10:31;;;;;;;7.82;0.55;;;11.50;99.90;;;;;;5043894;28;20033;-75
2024/01/22 09:12:56;;;;;;;8.27;0.60;;;11.50;99.90;;;;;;5038395;28;20029;-73
2024/01/22 09:15:22;;;;;;;5.65;0.45;;;11.50;99.90;;;;;;5037151;28;20408;-73
2024/01/22 09:17:49;;;;;;;6.03;0.40;;;11.50;99.90;;;;;;5050685;28;20063;-73
2024/01/22 09:20:15;;;;;;;8.48;0.90;;;11.50;99.90;;;;;;5042706;28;20026;-73
2024/01/22 09:22:41;;;;;;;5.60;0.60;;;11.50;99.90;;;;;;5036884;28;20033;-74
2024/01/22 09:25:08;;;;;;;7.95;0.90;;;11.50;99.90;;;;;;5034629;28;20401;-73
2024/01/22 09:27:34;;;;;;;6.22;0.60;;;11.50;99.90;;;;;;5035123;28;20021;-73
2024/01/22 09:29:59;;;;;;;8.48;1.20;;;11.40;99.90;;;;;;5042981;28;20036;-74
2024/01/22 09:32:25;;;;;;;7.07;1.00;;;11.40;99.90;;;;;;5040597;28;20397;-73
2024/01/22 09:34:51;;;;;;;7.50;1.05;;;11.40;99.90;;;;;;5036653;28;20090;-74
2024/01/22 09:37:17;;;;;;;8.93;1.02;;;11.40;99.90;;;;;;5047219;28;20047;-73
2024/01/22 09:39:44;;;;;;;5.32;0.95;;;11.40;99.90;;;;;;5049778;28;20028;-73
2024/01/22 09:42:12;;;;;;;11.40;1.67;;;11.30;99.90;;;;;;5053849;28;20021;-73
2024/01/22 09:44:40;;;;;;;12.98;1.13;;;11.30;99.90;;;;;;5047216;28;20068;-73
2024/01/22 09:47:05;;;;;;;17.88;1.75;;;11.20;99.90;;;;;;5039534;28;20087;-74
2024/01/22 09:49:31;;;;;;;13.00;1.42;;;11.20;99.90;;;;;;5039340;28;20432;-74
2024/01/22 09:51:57;;;;;;;10.40;1.27;;;11.10;99.90;;;;;;5036836;28;20025;-74
2024/01/22 09:54:25;;;;;;;14.07;0.95;;;11.00;99.90;;;;;;5050822;28;20036;-73
2024/01/22 09:56:53;;;;;;;11.90;0.93;;;10.70;99.90;;;;;;5040557;28;20036;-73
2024/01/22 09:59:21;;;;;;;8.23;0.70;;;10.30;99.90;;;;;;5045901;28;20017;-73
2024/01/22 10:01:48;;;;;;;6.93;0.90;;;10.10;99.90;;;;;;5049964;28;20025;-73
2024/01/22 10:04:14;;;;;;;12.02;0.70;;;9.80;99.90;;;;;;5031969;28;20052;-73
2024/01/22 10:06:41;;;;;;;10.98;0.80;;;9.60;99.90;;;;;;5042444;28;20029;-73
2024/01/22 10:09:07;;;;;;;12.02;0.45;;;9.50;99.90;;;;;;5036474;28;20065;-74
2024/01/22 10:11:36;;;;;;;8.27;0.60;;;9.30;99.90;;;;;;5044000;28;20090;-73
2024/01/22 10:14:02;;;;;;;7.20;0.55;;;9.20;99.90;;;;;;5052364;28;20543;-74
2024/01/22 10:16:29;;;;;;;7.50;0.60;;;9.10;99.90;;;;;;5045393;28;20033;-73
2024/01/22 10:19:05;;;;;;;10.05;0.60;;;9.10;99.90;;;;;;5050419;28;20017;-73
2024/01/22 10:21:31;;;;;;;9.63;1.45;;;9.00;99.90;;;;;;5057589;28;20036;-72
2024/01/22 10:24:02;;;;;;;9.43;0.73;;;9.00;99.90;;;;;;5043139;28;20418;-73
2024/01/22 10:26:30;;;;;;;14.68;1.08;;;9.00;99.90;;;;;;5046471;28;20385;-74
2024/01/22 10:29:22;;;;;;;11.07;0.75;;;9.00;99.90;;;;;;5048130;28;20050;-74
2024/01/22 10:31:59;;;;;;;13.32;1.00;;;8.90;99.90;;;;;;5049568;28;20025;-73
2024/01/22 10:34:28;;;;;;;14.52;1.17;;;9.00;99.90;;;;;;5035630;28;20035;-74
2024/01/22 10:37:07;;;;;;;10.23;1.23;;;9.00;99.90;;;;;;5030546;28;20040;-72
2024/01/22 10:39:33;;;;;;;14.27;1.23;;;9.00;99.90;;;;;;5049950;28;20064;-73
2024/01/22 10:42:14;;;;;;;20.45;1.92;;;9.10;99.90;;;;;;5037509;28;20067;-72
2024/01/22 10:44:45;;;;;;;16.58;1.45;;;9.10;99.90;;;;;;5031894;28;20128;-73
2024/01/22 10:47:14;;;;;;;24.65;1.42;;;9.10;99.90;;;;;;5036452;28;20033;-73
2024/01/22 10:49:43;;;;;;;20.63;1.77;;;9.10;99.90;;;;;;5031021;28;20025;-73
2024/01/22 10:52:09;;;;;;;22.92;2.20;;;9.10;99.90;;;;;;5040459;28;20144;-72
2024/01/22 10:54:37;;;;;;;23.75;1.90;;;9.10;99.90;;;;;;5043259;28;20107;-72
2024/01/22 10:57:09;;;;;;;14.52;2.03;;;9.10;99.90;;;;;;5036721;28;20409;-74
2024/01/22 10:59:36;;;;;;;;;;;9.10;99.90;;;;;;5036326;28;20108;-74
2024/01/22 11:02:04;;;;;;;24.15;1.92;;;9.10;99.90;;;;;;5033483;28;20012;-73
2024/01/22 11:04:34;;;;;;;20.48;2.85;;;9.10;99.90;;;;;;5047468;28;20079;-73
2024/01/22 11:07:02;;;;;;;21.38;1.83;;;9.20;99.90;;;;;;5052393;28;20470;-73
2024/01/22 11:09:36;;;;;;;16.25;1.42;;;9.20;99.90;;;;;;5041732;28;20039;-73
2024/01/22 11:12:21;;;;;;;21.73;2.20;;;9.30;99.90;;;;;;5047522;28;20114;-74
2024/01/22 11:14:48;;;;;;;20.33;2.75;;;9.30;99.90;;;;;;5043622;28;20083;-73
2024/01/22 11:17:15;;;;;;;30.05;3.17;;;9.40;99.90;;;;;;5040383;28;20049;-74
2024/01/22 11:19:41;;;;;;;23.25;2.25;;;9.40;99.90;;;;;;5041329;28;20044;-73
2024/01/22 11:22:21;;;;;;;17.92;2.33;;;9.50;99.90;;;;;;5050147;28;20029;-74
2024/01/22 11:25:06;;;;;;;27.33;2.53;;;9.50;99.90;;;;;;5050806;28;20021;-73
2024/01/22 11:27:39;;;;;;;26.83;2.53;;;9.50;99.90;;;;;;5052945;28;20028;-74
2024/01/22 11:30:23;;;;;;;29.38;3.08;;;9.50;99.90;;;;;;5042009;28;20075;-74
2024/01/22 11:32:49;;;;;;;26.48;2.95;;;9.50;99.90;;;;;;5042234;28;20025;-74
2024/01/22 11:35:41;;;;;;;31.40;3.33;;;9.50;99.90;;;;;;5034054;28;20041;-74
2024/01/22 11:38:11;;;;;;;30.70;3.55;;;9.50;99.90;;;;;;5035189;28;20508;-74
2024/01/22 11:40:47;;;;;;;41.85;4.40;;;9.60;99.90;;;;;;5046901;28;20030;-73
2024/01/22 11:43:15;;;;;;;37.05;3.53;;;9.60;99.90;;;;;;5031980;28;20018;-74
2024/01/22 11:45:40;;;;;;;37.63;3.97;;;9.70;99.90;;;;;;5030949;28;20064;-74
2024/01/22 11:48:20;;;;;;;30.15;4.18;;;9.70;99.90;;;;;;5040027;28;20557;-74
2024/01/22 11:51:04;;;;;;;37.35;4.43;;;9.90;99.90;;;;;;5033788;28;20032;-74
2024/01/22 11:53:31;;;;;;;39.33;4.75;;;9.90;99.90;;;;;;5035752;28;20024;-74
2024/01/22 11:56:06;;;;;;;34.47;3.75;;;9.90;99.90;;;;;;5036910;28;20030;-74
2024/01/22 11:58:34;;;;;;;32.60;3.97;;;10.00;99.90;;;;;;5036694;28;20033;-74
2024/01/22 12:01:03;;;;;;;39.80;4.03;;;10.10;99.90;;;;;;5028074;28;20029;-75
2024/01/22 12:03:29;;;;;;;32.25;3.47;;;10.10;99.90;;;;;;5023718;28;20169;-74
2024/01/22 12:06:02;;;;;;;30.77;3.85;;;10.20;99.90;;;;;;5037285;28;20044;-75
2024/01/22 12:08:28;;;;;;;30.33;3.38;;;10.20;99.90;;;;;;5040015;28;20098;-74
2024/01/22 12:11:12;;;;;;;36.05;4.30;;;10.20;99.90;;;;;;5040896;28;20370;-74
2024/01/22 12:13:40;;;;;;;37.83;4.18;;;10.30;99.90;;;;;;5043925;28;20024;-74
2024/01/22 12:16:13;;;;;;;33.83;4.47;;;10.30;99.90;;;;;;5041789;28;20048;-74
2024/01/22 12:18:39;;;;;;;39.40;4.15;;;10.40;99.90;;;;;;5038821;28;20029;-74
2024/01/22 12:21:05;;;;;;;28.88;3.45;;;10.50;99.90;;;;;;5040433;28;20166;-74
2024/01/22 12:23:31;;;;;;;27.75;3.88;;;10.50;99.90;;;;;;5043308;28;20028;-74
2024/01/22 12:25:58;;;;;;;32.20;4.15;;;10.60;99.90;;;;;;5041092;28;20033;-74
2024/01/22 12:28:25;;;;;;;23.45;3.35;;;10.70;99.90;;;;;;5050801;28;20032;-75
2024/01/22 12:31:01;;;;;;;27.88;3.25;;;10.70;99.90;;;;;;5045529;28;20033;-74
2024/01/22 12:33:29;;;;;;;30.30;3.13;;;10.60;99.90;;;;;;5047429;28;20451;-74
2024/01/22 12:36:24;;;;;;;29.42;3.03;;;10.60;99.90;;;;;;5041433;28;20380;-74
2024/01/22 12:38:52;;;;;;;24.90;2.67;;;10.50;99.90;;;;;;5028915;28;20064;-74
2024/01/22 12:41:19;;;;;;;20.80;3.03;;;10.50;99.90;;;;;;5046120;28;20113;-74
2024/01/22 12:43:45;;;;;;;22.52;3.00;;;10.40;99.90;;;;;;5047047;28;20135;-74
2024/01/22 12:46:19;;;;;;;26.42;2.85;;;10.40;99.90;;;;;;5043717;28;20055;-74
2024/01/22 12:48:45;;;;;;;25.13;2.63;;;10.40;99.90;;;;;;5048422;28;20021;-74
2024/01/22 12:51:11;;;;;;;21.85;3.88;;;10.50;99.90;;;;;;5042122;28;20090;-74